Chicago, IL

3:56 AM CDT on August 28, 2016 (GMT -0500)
West Loop | | Change Station

Elev 571 ft 41.88 °N, 87.64 °W | Updated 1 second ago

Scattered Clouds
Scattered Clouds
78.4 °F
Feels Like 80 °F
N
1.7
Wind Variable Wind from WSW

Today
High -- | Low -- °F
--% Chance of Precip.
Yesterday
High -- | Low -- °F
Precip. -- in
Pressure 30.09 in
Visibility 9.0 miles
Clouds Few 3500 ft
Scattered Clouds 30000 ft
Heat Index 80 °F
Dew Point 65 °F
Humidity 64%
Rainfall 0.00 in
Snow Depth Not available.
6:12 AM 7:29 PM
Waning Crescent, 17% visible
METAR KMDW 280853Z 27003KT 9SM FEW035 SCT300 24/22 A3012 RMK AO2 SLP188 FRQ LTGIC DSNT N CB DSNT N T02390217 53007
Pressure 30.09 in
Visibility 9.0 miles
Clouds Few 3500 ft
Scattered Clouds 30000 ft
Heat Index 80 °F
Dew Point 65 °F
Humidity 64%
Rainfall 0.00 in
Snow Depth Not available.
6:12 AM 7:29 PM
Waning Crescent, 17% visible
METAR KMDW 280853Z 27003KT 9SM FEW035 SCT300 24/22 A3012 RMK AO2 SLP188 FRQ LTGIC DSNT N CB DSNT N T02390217 53007

10-Day Weather Forecast

Almanac

Astronomy

Aug. 28, 2016 Rise Set
Actual Time
Civil Twilight
Nautical Twilight
Astronomical Twilight
Moon
Length of Visible Light
Length of Day
Tomorrow will be .
, % of the Moon is Illuminated

Today's Extremes

State Highs State Lows

Community

WunderPhotos

Upload Photos

1,935,540 photos uploaded!

WunderBlog® & News

Nearby

Air Quality

  Air Quality AQ Index Pollutant
Not available.

Snow Depth

Station Depth Elevation

Earthquake Activity

City Distance Mag. Time & Date
Minimum magnitude displayed is 2.5.

Coastal Water Temperatures

Place Temperature

Stations

Nearby Weather Stations

Station Location Temp. Windchill Dew Point Humidity Wind Precip. Elev Updated Type
                   

Watches & Warnings

There are currently no watches in effect.